Goodland, Texas
Current Conditions -  °F | °C
As of 8:35 PM on Sunday 25 Jan 2015 (Local Time) from KCVN Reporting Station
Clear Clear  
Wind Chill: 29°   Ceiling: Unl
Heat Index: 36°   Visibility: NA
Dew Point: 28°   Wind: 8mph
Humidity: 75%   Direction: 290°WNW
Pressure: 30.26"   Gusts: NA
Location:  34.1266°N, 102.525°W
Report Text: KCVN 260235Z AUTO 29007KT CLR 02/M02 A3026 RMK AO1
Loading
Personal Weather Stations






























Interactive Weather Map New forecast layout! Learn more

10-Day Weather Forecast

Advertisements
Track Severe Weather on mobile